Time;durP1;ratioP1;P1;durP2;ratioP2;P2;SDS_P1;SDS_P2;PMS_P1;PMS_P2;Temp;Humidity;BMP_temperature;BMP_pressure;BME280_temperature;BME280_humidity;BME280_pressure;Samples;Min_cycle;Max_cycle;Signal;HPM_P1;HPM_P2
2024/03/02 00:00:55;;;;;;;17.00;10.97;;;;;;;;;;6323589;28;20410;-78
2024/03/02 00:03:55;;;;;;;16.77;12.07;;;;;;;;;;6321784;28;20372;-79
2024/03/02 00:06:56;;;;;;;15.40;9.97;;;;;;;;;;6303979;28;20115;-78
2024/03/02 00:09:56;;;;;;;15.17;10.43;;;;;;;;;;6304162;28;20027;-79
2024/03/02 00:12:59;;;;;;;15.53;10.93;;;;;;;;;;6323944;28;20460;-79
2024/03/02 00:15:59;;;;;;;15.40;10.48;;;;;;;;;;6298915;28;20123;-78
2024/03/02 00:19:03;;;;;;;15.60;10.67;;;;;;;;;;6323778;28;20034;-78
2024/03/02 00:22:03;;;;;;;15.27;11.23;;;;;;;;;;6321920;28;20036;-79
2024/03/02 00:25:04;;;;;;;16.43;10.57;;;;;;;;;;6323597;28;20048;-78
2024/03/02 00:28:07;;;;;;;14.93;10.67;;;;;;;;;;6321540;28;20073;-79
2024/03/02 00:31:13;;;;;;;16.20;10.60;;;;;;;;;;6322241;28;20024;-78
2024/03/02 00:34:16;;;;;;;15.88;10.82;;;;;;;;;;6323126;28;20030;-78
2024/03/02 00:37:16;;;;;;;16.30;9.80;;;;;;;;;;6304511;28;20024;-78
2024/03/02 00:40:17;;;;;;;14.77;9.57;;;;;;;;;;6322779;28;20081;-78
2024/03/02 00:43:36;;;;;;;17.67;11.60;;;;;;;;;;6325081;28;20020;-79
2024/03/02 00:46:37;;;;;;;18.20;11.18;;;;;;;;;;6320414;28;20335;-77
2024/03/02 00:49:37;;;;;;;19.05;12.13;;;;;;;;;;6308767;28;20096;-80
2024/03/02 00:52:37;;;;;;;16.47;11.60;;;;;;;;;;6308304;28;20028;-79
2024/03/02 00:55:38;;;;;;;18.73;11.33;;;;;;;;;;6317873;28;20028;-79
2024/03/02 00:58:39;;;;;;;14.88;10.55;;;;;;;;;;6322459;28;20028;-79
2024/03/02 01:01:39;;;;;;;15.90;10.10;;;;;;;;;;6323584;28;20031;-79
2024/03/02 01:04:39;;;;;;;19.67;10.67;;;;;;;;;;6322302;28;20441;-80
2024/03/02 01:07:40;;;;;;;12.87;8.90;;;;;;;;;;6321221;28;20028;-79
2024/03/02 01:10:40;;;;;;;16.33;10.27;;;;;;;;;;6318147;28;20015;-78
2024/03/02 01:13:40;;;;;;;15.63;10.10;;;;;;;;;;6319424;28;20474;-79
2024/03/02 01:16:40;;;;;;;15.07;10.53;;;;;;;;;;6322275;28;20036;-79
2024/03/02 01:19:41;;;;;;;15.10;9.77;;;;;;;;;;6321421;28;20035;-79
2024/03/02 01:22:42;;;;;;;14.52;9.85;;;;;;;;;;6322869;28;20020;-79
2024/03/02 01:25:42;;;;;;;16.13;9.50;;;;;;;;;;6322126;28;20080;-79
2024/03/02 01:28:42;;;;;;;15.23;9.77;;;;;;;;;;6308497;28;20068;-79
2024/03/02 01:31:42;;;;;;;13.87;10.00;;;;;;;;;;6321710;28;20415;-79
2024/03/02 01:34:42;;;;;;;13.10;9.33;;;;;;;;;;6321110;28;20024;-80
2024/03/02 01:37:43;;;;;;;16.00;8.87;;;;;;;;;;6321614;28;20081;-79
2024/03/02 01:40:46;;;;;;;18.27;9.33;;;;;;;;;;6321336;28;20019;-79
2024/03/02 01:43:46;;;;;;;16.42;9.85;;;;;;;;;;6322181;28;20027;-79
2024/03/02 01:46:47;;;;;;;15.80;9.60;;;;;;;;;;6295198;28;20036;-79
2024/03/02 01:49:47;;;;;;;13.73;8.87;;;;;;;;;;6315275;28;20016;-80
2024/03/02 01:52:47;;;;;;;15.33;10.00;;;;;;;;;;6311049;28;20028;-78
2024/03/02 01:55:47;;;;;;;14.47;9.47;;;;;;;;;;6314900;28;20039;-78
2024/03/02 01:58:48;;;;;;;17.40;10.30;;;;;;;;;;6314017;28;20016;-78
2024/03/02 02:01:48;;;;;;;17.67;9.87;;;;;;;;;;6314030;28;20040;-79
2024/03/02 02:04:48;;;;;;;14.70;8.93;;;;;;;;;;6310369;28;20190;-79
2024/03/02 02:07:48;;;;;;;15.23;9.73;;;;;;;;;;6280981;28;20034;-78
2024/03/02 02:10:49;;;;;;;15.33;9.47;;;;;;;;;;6322017;28;20480;-78
2024/03/02 02:13:49;;;;;;;15.30;10.13;;;;;;;;;;6326908;28;20052;-79
2024/03/02 02:16:49;;;;;;;18.07;10.43;;;;;;;;;;6322249;28;20035;-78
2024/03/02 02:19:49;;;;;;;18.93;10.40;;;;;;;;;;6317665;28;20012;-78
2024/03/02 02:23:00;;;;;;;18.30;10.37;;;;;;;;;;6326897;28;20078;-79
2024/03/02 02:26:01;;;;;;;19.02;10.77;;;;;;;;;;6326247;28;20058;-79
2024/03/02 02:29:02;;;;;;;16.70;10.65;;;;;;;;;;6326971;28;20384;-78
2024/03/02 02:32:02;;;;;;;18.10;10.57;;;;;;;;;;6326222;28;20024;-78
2024/03/02 02:35:03;;;;;;;17.37;9.90;;;;;;;;;;6303743;28;20028;-78
2024/03/02 02:38:04;;;;;;;18.88;10.13;;;;;;;;;;6326423;28;20676;-79
2024/03/02 02:41:04;;;;;;;16.17;10.32;;;;;;;;;;6307511;28;20032;-78
2024/03/02 02:44:04;;;;;;;17.53;9.83;;;;;;;;;;6325358;28;20126;-78
2024/03/02 02:47:05;;;;;;;17.73;9.53;;;;;;;;;;6326013;28;20044;-78
2024/03/02 02:50:06;;;;;;;19.10;9.67;;;;;;;;;;6303049;28;20081;-79
2024/03/02 02:53:09;;;;;;;15.80;9.90;;;;;;;;;;6324752;28;20103;-78
2024/03/02 02:56:09;;;;;;;15.48;9.35;;;;;;;;;;6324342;28;20039;-80
2024/03/02 02:59:10;;;;;;;14.70;8.63;;;;;;;;;;6325915;28;20024;-79
2024/03/02 03:02:10;;;;;;;14.77;9.17;;;;;;;;;;6325920;28;20016;-79
2024/03/02 03:05:11;;;;;;;13.10;8.53;;;;;;;;;;6316778;28;20152;-79
2024/03/02 03:08:11;;;;;;;13.18;8.30;;;;;;;;;;6325392;28;20110;-79
2024/03/02 03:11:11;;;;;;;15.23;9.00;;;;;;;;;;6324490;28;20384;-79
2024/03/02 03:14:12;;;;;;;14.70;9.00;;;;;;;;;;6319446;28;20081;-79
2024/03/02 03:17:12;;;;;;;17.93;9.90;;;;;;;;;;6307477;28;20039;-79
2024/03/02 03:20:14;;;;;;;17.17;9.53;;;;;;;;;;6304425;28;20753;-79
2024/03/02 03:23:16;;;;;;;13.82;8.98;;;;;;;;;;6307837;28;20072;-79
2024/03/02 03:26:16;;;;;;;16.90;10.27;;;;;;;;;;6324755;28;20055;-79
2024/03/02 03:29:16;;;;;;;16.57;9.37;;;;;;;;;;6324904;28;20072;-79
2024/03/02 03:32:16;;;;;;;15.87;9.23;;;;;;;;;;6319431;28;20032;-79
2024/03/02 03:35:18;;;;;;;14.20;9.53;;;;;;;;;;6296398;28;20038;-79
2024/03/02 03:38:19;;;;;;;16.80;9.65;;;;;;;;;;6313344;28;20020;-79
2024/03/02 03:41:19;;;;;;;13.80;8.57;;;;;;;;;;6306085;28;20039;-79
2024/03/02 03:44:19;;;;;;;15.53;8.80;;;;;;;;;;6322681;28;20065;-79
2024/03/02 03:47:20;;;;;;;12.20;8.70;;;;;;;;;;6324992;28;20098;-77
2024/03/02 03:50:20;;;;;;;13.63;8.53;;;;;;;;;;6318966;28;20151;-79
2024/03/02 03:53:20;;;;;;;13.83;8.50;;;;;;;;;;6314654;28;20384;-79
2024/03/02 03:56:20;;;;;;;14.00;8.77;;;;;;;;;;6310979;28;20066;-79
2024/03/02 03:59:21;;;;;;;14.40;8.10;;;;;;;;;;6317995;28;20411;-79
2024/03/02 04:02:21;;;;;;;16.30;9.37;;;;;;;;;;6322814;28;20418;-79
2024/03/02 04:05:21;;;;;;;13.10;8.67;;;;;;;;;;6322869;28;20379;-79
2024/03/02 04:08:21;;;;;;;14.33;8.57;;;;;;;;;;6323403;28;20575;-79
2024/03/02 04:11:22;;;;;;;15.63;8.97;;;;;;;;;;6304168;28;20460;-79
2024/03/02 04:14:22;;;;;;;12.83;8.37;;;;;;;;;;6318966;28;20536;-79
2024/03/02 04:17:22;;;;;;;14.60;8.60;;;;;;;;;;6281550;28;20405;-79
2024/03/02 04:20:22;;;;;;;12.17;7.83;;;;;;;;;;6316525;28;20358;-78
2024/03/02 04:23:23;;;;;;;11.23;7.53;;;;;;;;;;6323117;28;20085;-80
2024/03/02 04:26:23;;;;;;;11.07;7.27;;;;;;;;;;6323234;28;20136;-77
2024/03/02 04:29:23;;;;;;;12.63;7.57;;;;;;;;;;6319247;28;20020;-79
2024/03/02 04:32:23;;;;;;;10.77;7.30;;;;;;;;;;6324653;28;20034;-78
2024/03/02 04:35:25;;;;;;;12.50;7.57;;;;;;;;;;6322098;28;20020;-79
2024/03/02 04:38:25;;;;;;;10.50;7.32;;;;;;;;;;6322711;28;20032;-79
2024/03/02 04:41:25;;;;;;;9.97;6.83;;;;;;;;;;6306847;28;20071;-79
2024/03/02 04:44:25;;;;;;;12.10;6.97;;;;;;;;;;6304606;28;20032;-77
2024/03/02 04:47:26;;;;;;;10.60;6.90;;;;;;;;;;6321706;28;20030;-79
2024/03/02 04:50:26;;;;;;;9.90;6.47;;;;;;;;;;6321261;28;20035;-79
2024/03/02 04:53:26;;;;;;;9.17;6.30;;;;;;;;;;6320049;28;20028;-79
2024/03/02 04:59:27;;;;;;;9.27;6.37;;;;;;;;;;6323046;28;20107;-79
2024/03/02 05:02:27;;;;;;;9.53;6.40;;;;;;;;;;6323945;28;20048;-80
2024/03/02 05:05:27;;;;;;;9.77;6.50;;;;;;;;;;6317342;28;20461;-79
2024/03/02 05:08:27;;;;;;;10.50;6.30;;;;;;;;;;6322725;28;20477;-79
2024/03/02 05:14:38;;;;;;;10.80;6.63;;;;;;;;;;6318200;28;20047;-78
2024/03/02 05:17:39;;;;;;;10.30;6.80;;;;;;;;;;6323315;28;20515;-79
2024/03/02 05:20:39;;;;;;;9.88;6.38;;;;;;;;;;6320571;28;20032;-79
2024/03/02 05:23:40;;;;;;;10.67;6.77;;;;;;;;;;6322671;28;20111;-79
2024/03/02 05:26:40;;;;;;;8.90;6.57;;;;;;;;;;6297357;28;20056;-78
2024/03/02 05:29:40;;;;;;;9.20;6.73;;;;;;;;;;6292282;28;20473;-79
2024/03/02 05:32:40;;;;;;;9.67;6.47;;;;;;;;;;6297705;28;20035;-78
2024/03/02 05:35:41;;;;;;;11.03;6.60;;;;;;;;;;6296925;28;20032;-79
2024/03/02 05:38:41;;;;;;;10.20;6.60;;;;;;;;;;6285891;28;20108;-79
2024/03/02 05:41:41;;;;;;;12.53;6.77;;;;;;;;;;6292934;28;20028;-77
2024/03/02 05:44:41;;;;;;;9.57;6.80;;;;;;;;;;6295166;28;20122;-78
2024/03/02 05:47:42;;;;;;;8.83;6.43;;;;;;;;;;6290424;28;20021;-77
2024/03/02 05:50:42;;;;;;;8.13;6.17;;;;;;;;;;6282864;28;20367;-78
2024/03/02 05:53:42;;;;;;;8.83;6.33;;;;;;;;;;6288329;28;20473;-78
2024/03/02 05:56:43;;;;;;;12.53;7.13;;;;;;;;;;6296887;28;20028;-79
2024/03/02 05:59:46;;;;;;;11.87;7.10;;;;;;;;;;6295719;28;20024;-78
2024/03/02 06:02:46;;;;;;;10.13;6.38;;;;;;;;;;6295939;28;20075;-78
2024/03/02 06:05:49;;;;;;;9.03;6.70;;;;;;;;;;6291560;28;20104;-78
2024/03/02 06:08:50;;;;;;;7.78;6.10;;;;;;;;;;6292436;28;20035;-78
2024/03/02 06:11:50;;;;;;;8.05;5.88;;;;;;;;;;6293185;28;20028;-77
2024/03/02 06:14:50;;;;;;;7.90;5.53;;;;;;;;;;6294163;28;20033;-78
2024/03/02 06:17:51;;;;;;;6.53;5.50;;;;;;;;;;6294834;28;20028;-78
2024/03/02 06:20:51;;;;;;;5.77;4.93;;;;;;;;;;6288435;28;20385;-78
2024/03/02 06:23:51;;;;;;;5.63;4.80;;;;;;;;;;6294024;28;20561;-78
2024/03/02 06:26:51;;;;;;;5.77;4.63;;;;;;;;;;6318295;28;20384;-79
2024/03/02 06:29:52;;;;;;;6.03;4.67;;;;;;;;;;6317581;28;20020;-79
2024/03/02 06:32:52;;;;;;;7.17;5.23;;;;;;;;;;6315280;28;20028;-78
2024/03/02 06:35:52;;;;;;;8.53;5.43;;;;;;;;;;6317333;28;20032;-78
2024/03/02 06:38:52;;;;;;;5.80;4.53;;;;;;;;;;6310921;28;20016;-77
2024/03/02 06:41:53;;;;;;;7.17;5.20;;;;;;;;;;6318237;28;20028;-77
2024/03/02 06:44:53;;;;;;;6.93;4.83;;;;;;;;;;6300264;28;20027;-77
2024/03/02 06:47:53;;;;;;;6.80;5.03;;;;;;;;;;6313381;28;20021;-77
2024/03/02 06:50:54;;;;;;;6.23;5.13;;;;;;;;;;6317390;28;20020;-78
2024/03/02 06:53:55;;;;;;;7.45;5.30;;;;;;;;;;6313933;28;20021;-77
2024/03/02 06:56:55;;;;;;;6.70;4.75;;;;;;;;;;6321101;28;20035;-78
2024/03/02 06:59:58;;;;;;;7.53;5.33;;;;;;;;;;6322905;28;20016;-77
2024/03/02 07:02:58;;;;;;;8.57;5.65;;;;;;;;;;6324120;28;20057;-78
2024/03/02 07:05:58;;;;;;;7.70;5.53;;;;;;;;;;6321726;28;20028;-77
2024/03/02 07:08:59;;;;;;;6.70;4.97;;;;;;;;;;6319464;28;20467;-78
2024/03/02 07:11:59;;;;;;;6.13;4.87;;;;;;;;;;6322746;28;20765;-77
2024/03/02 07:18:03;;;;;;;8.40;5.45;;;;;;;;;;6324055;28;20449;-78
2024/03/02 07:21:04;;;;;;;6.70;5.18;;;;;;;;;;6319649;28;20028;-79
2024/03/02 07:24:04;;;;;;;7.77;5.30;;;;;;;;;;6322419;28;20032;-79
2024/03/02 07:27:04;;;;;;;7.23;5.27;;;;;;;;;;6323208;28;20024;-79
2024/03/02 07:30:05;;;;;;;7.67;4.93;;;;;;;;;;6322140;28;20511;-79
2024/03/02 07:33:06;;;;;;;8.88;6.18;;;;;;;;;;6294507;28;20020;-78
2024/03/02 07:36:07;;;;;;;8.60;6.63;;;;;;;;;;6302395;28;20035;-79
2024/03/02 07:39:07;;;;;;;8.13;5.75;;;;;;;;;;6316554;28;20020;-78
2024/03/02 07:42:07;;;;;;;6.97;5.30;;;;;;;;;;6303931;28;20035;-81
2024/03/02 07:45:08;;;;;;;6.90;5.40;;;;;;;;;;6304576;28;20126;-80
2024/03/02 07:48:08;;;;;;;6.77;5.10;;;;;;;;;;6322396;28;20016;-81
2024/03/02 07:51:08;;;;;;;6.50;4.63;;;;;;;;;;6319396;28;20020;-85
2024/03/02 07:54:09;;;;;;;6.80;4.67;;;;;;;;;;6304694;28;20020;-82
2024/03/02 07:57:10;;;;;;;9.43;5.40;;;;;;;;;;6319862;28;20039;-82
2024/03/02 08:00:11;;;;;;;8.80;4.82;;;;;;;;;;6314961;28;20016;-82
2024/03/02 08:03:11;;;;;;;5.23;4.67;;;;;;;;;;6321415;28;20473;-80
2024/03/02 08:06:12;;;;;;;6.80;4.80;;;;;;;;;;6318009;28;20026;-81
2024/03/02 08:09:12;;;;;;;5.43;4.43;;;;;;;;;;6303941;28;20020;-77
2024/03/02 08:12:12;;;;;;;6.67;4.77;;;;;;;;;;6320590;28;20115;-79
2024/03/02 08:15:13;;;;;;;6.73;4.67;;;;;;;;;;6322835;28;20058;-80
2024/03/02 08:18:13;;;;;;;6.57;4.70;;;;;;;;;;6320832;28;20024;-79
2024/03/02 08:21:13;;;;;;;5.50;4.53;;;;;;;;;;6318903;28;20016;-81
2024/03/02 08:24:13;;;;;;;6.83;4.87;;;;;;;;;;6317530;28;20040;-81
2024/03/02 08:27:14;;;;;;;6.13;4.27;;;;;;;;;;6319596;28;20081;-79
2024/03/02 08:30:15;;;;;;;6.40;4.47;;;;;;;;;;6322298;28;20008;-79
2024/03/02 08:33:15;;;;;;;7.03;5.07;;;;;;;;;;6300581;28;20396;-79
2024/03/02 08:36:15;;;;;;;5.77;4.80;;;;;;;;;;6318698;28;20488;-79
2024/03/02 08:39:16;;;;;;;7.43;5.33;;;;;;;;;;6318825;28;20531;-81
2024/03/02 08:42:17;;;;;;;5.90;5.17;;;;;;;;;;6318954;28;20028;-81
2024/03/02 08:45:20;;;;;;;6.72;5.15;;;;;;;;;;6316807;28;20090;-83
2024/03/02 08:48:20;;;;;;;7.00;5.20;;;;;;;;;;6320688;28;20078;-85
2024/03/02 08:51:21;;;;;;;6.13;4.82;;;;;;;;;;6321446;28;20457;-85
2024/03/02 08:54:21;;;;;;;6.57;5.13;;;;;;;;;;6322922;28;20032;-85
2024/03/02 08:57:22;;;;;;;6.63;5.10;;;;;;;;;;6302973;28;20067;-83
2024/03/02 09:00:23;;;;;;;6.60;5.33;;;;;;;;;;6294509;28;20028;-83
2024/03/02 09:03:23;;;;;;;8.30;6.22;;;;;;;;;;6297077;28;20510;-83
2024/03/02 09:06:23;;;;;;;6.90;5.17;;;;;;;;;;6315670;28;20036;-83
2024/03/02 09:09:23;;;;;;;7.33;6.17;;;;;;;;;;6303419;28;20028;-84
2024/03/02 09:12:24;;;;;;;10.27;6.33;;;;;;;;;;6303249;28;20016;-80
2024/03/02 09:15:24;;;;;;;8.37;5.77;;;;;;;;;;6321193;28;20423;-83
2024/03/02 09:18:24;;;;;;;8.57;6.47;;;;;;;;;;6318697;28;20026;-81
2024/03/02 09:21:25;;;;;;;8.60;5.90;;;;;;;;;;6300351;28;20480;-85
2024/03/02 09:24:25;;;;;;;8.70;6.53;;;;;;;;;;6303711;28;20075;-83
2024/03/02 09:27:26;;;;;;;8.90;6.73;;;;;;;;;;6303134;28;20035;-82
2024/03/02 09:30:26;;;;;;;10.20;6.60;;;;;;;;;;6315866;28;20375;-83
2024/03/02 09:33:26;;;;;;;8.53;6.63;;;;;;;;;;6298949;28;20038;-83
2024/03/02 09:36:27;;;;;;;11.17;7.17;;;;;;;;;;6317549;28;20062;-78
2024/03/02 09:39:28;;;;;;;13.77;7.57;;;;;;;;;;6302985;28;20054;-79
2024/03/02 09:42:29;;;;;;;10.40;7.23;;;;;;;;;;6321572;28;20020;-79
2024/03/02 09:45:30;;;;;;;10.07;7.27;;;;;;;;;;6298768;28;20423;-79
2024/03/02 09:48:30;;;;;;;12.47;7.50;;;;;;;;;;6323388;28;20028;-80
2024/03/02 09:51:31;;;;;;;11.23;8.03;;;;;;;;;;6306789;28;20020;-79
2024/03/02 09:54:31;;;;;;;12.77;7.78;;;;;;;;;;6304197;28;20055;-80
2024/03/02 09:57:31;;;;;;;13.23;8.70;;;;;;;;;;6318633;28;20392;-79
2024/03/02 10:00:32;;;;;;;11.50;8.20;;;;;;;;;;6320916;28;20016;-80
2024/03/02 10:03:33;;;;;;;10.10;7.93;;;;;;;;;;6319420;28;20016;-78
2024/03/02 10:06:33;;;;;;;;;;;;;;;;;;6318168;28;20071;-79
2024/03/02 10:09:33;;;;;;;9.93;6.75;;;;;;;;;;6301590;28;19908;-79
2024/03/02 10:12:34;;;;;;;10.73;7.97;;;;;;;;;;6321004;28;20016;-78
2024/03/02 10:15:34;;;;;;;12.03;8.17;;;;;;;;;;6305364;28;20047;-77
2024/03/02 10:18:34;;;;;;;11.27;8.00;;;;;;;;;;6300713;28;20392;-86
2024/03/02 10:21:35;;;;;;;13.53;8.73;;;;;;;;;;6326618;28;20307;-87
2024/03/02 10:24:37;;;;;;;13.20;9.30;;;;;;;;;;6306560;28;20573;-87
2024/03/02 10:27:37;;;;;;;13.52;9.02;;;;;;;;;;6325924;28;20024;-87
2024/03/02 10:30:37;;;;;;;14.27;9.43;;;;;;;;;;6311494;28;20039;-86
2024/03/02 10:33:38;;;;;;;12.13;9.03;;;;;;;;;;6327420;28;20039;-82
2024/03/02 10:36:42;;;;;;;13.17;9.30;;;;;;;;;;6295070;28;20077;-83
2024/03/02 10:39:42;;;;;;;12.68;9.40;;;;;;;;;;6309019;28;20031;-86
2024/03/02 10:42:43;;;;;;;11.60;8.90;;;;;;;;;;6327975;28;20028;-88
2024/03/02 10:45:45;;;;;;;12.50;9.35;;;;;;;;;;6306704;28;20020;-86
2024/03/02 10:49:03;;;;;;;13.80;9.48;;;;;;;;;;6328607;28;20030;-86
2024/03/02 10:52:04;;;;;;;12.77;9.50;;;;;;;;;;6326025;28;20027;-86
2024/03/02 10:55:09;;;;;;;15.53;9.30;;;;;;;;;;6327666;28;20020;-81
2024/03/02 10:58:17;;;;;;;13.35;9.48;;;;;;;;;;6288749;28;20056;-80
2024/03/02 11:01:20;;;;;;;14.80;9.50;;;;;;;;;;6302440;28;20035;-79
2024/03/02 11:04:22;;;;;;;14.95;9.45;;;;;;;;;;6325571;28;20049;-83
2024/03/02 11:07:31;;;;;;;12.63;9.35;;;;;;;;;;6307428;28;20032;-80
2024/03/02 11:10:34;;;;;;;13.38;9.93;;;;;;;;;;6306741;28;20027;-79
2024/03/02 11:13:34;;;;;;;13.38;10.05;;;;;;;;;;6319993;28;20391;-79
2024/03/02 11:16:36;;;;;;;14.30;9.40;;;;;;;;;;6316497;28;20028;-77
2024/03/02 11:19:37;;;;;;;12.93;9.73;;;;;;;;;;6324388;28;20027;-78
2024/03/02 11:22:38;;;;;;;14.15;9.68;;;;;;;;;;6325035;28;20109;-79
2024/03/02 11:25:39;;;;;;;15.27;9.97;;;;;;;;;;6308101;28;20426;-81
2024/03/02 11:28:39;;;;;;;12.27;9.63;;;;;;;;;;6305132;28;20016;-82
2024/03/02 11:32:01;;;;;;;13.00;9.33;;;;;;;;;;6319937;28;20043;-82
2024/03/02 11:35:01;;;;;;;11.93;8.68;;;;;;;;;;6311354;28;20031;-81
2024/03/02 11:38:03;;;;;;;14.80;10.35;;;;;;;;;;6324818;28;20027;-80
2024/03/02 11:41:07;;;;;;;14.98;11.23;;;;;;;;;;6306708;28;20058;-79
2024/03/02 11:44:11;;;;;;;16.00;11.43;;;;;;;;;;6323386;28;20039;-77
2024/03/02 11:47:15;;;;;;;14.15;10.77;;;;;;;;;;6300193;28;20063;-80
2024/03/02 11:50:28;;;;;;;14.77;11.57;;;;;;;;;;6281950;28;20033;-81
2024/03/02 11:53:37;;;;;;;14.23;10.93;;;;;;;;;;6320687;28;20020;-79
2024/03/02 11:56:37;;;;;;;12.15;9.52;;;;;;;;;;6324361;28;20107;-81
2024/03/02 11:59:37;;;;;;;12.73;9.93;;;;;;;;;;6323786;28;20032;-84
2024/03/02 12:02:40;;;;;;;12.80;9.63;;;;;;;;;;6325550;28;20028;-81
2024/03/02 12:05:40;;;;;;;13.23;9.95;;;;;;;;;;6305215;28;20020;-82
2024/03/02 12:08:40;;;;;;;13.87;10.23;;;;;;;;;;6300359;28;20380;-81
2024/03/02 12:11:41;;;;;;;12.63;9.57;;;;;;;;;;6318827;28;20103;-78
2024/03/02 12:14:49;;;;;;;14.97;10.20;;;;;;;;;;6323918;28;20028;-81
2024/03/02 12:17:52;;;;;;;12.80;9.70;;;;;;;;;;6324750;28;20032;-81
2024/03/02 12:20:52;;;;;;;12.65;9.43;;;;;;;;;;6321899;28;20063;-81
2024/03/02 12:23:52;;;;;;;11.67;8.70;;;;;;;;;;6323595;28;20027;-83
2024/03/02 12:26:53;;;;;;;11.07;8.87;;;;;;;;;;6321525;28;20016;-76
2024/03/02 12:29:53;;;;;;;12.75;9.32;;;;;;;;;;6320406;28;20052;-82
2024/03/02 12:32:54;;;;;;;12.23;9.33;;;;;;;;;;6306696;28;20024;-80
2024/03/02 12:35:56;;;;;;;11.40;9.43;;;;;;;;;;6322252;28;20094;-80
2024/03/02 12:38:56;;;;;;;13.80;10.07;;;;;;;;;;6305837;28;20047;-81
2024/03/02 12:41:57;;;;;;;13.45;9.63;;;;;;;;;;6323340;28;20024;-81
2024/03/02 12:44:57;;;;;;;11.70;9.83;;;;;;;;;;6304933;28;20688;-80
2024/03/02 12:47:59;;;;;;;13.37;9.60;;;;;;;;;;6321307;28;20512;-80
2024/03/02 12:51:00;;;;;;;13.32;9.65;;;;;;;;;;6300205;28;20099;-81
2024/03/02 12:54:00;;;;;;;12.07;9.32;;;;;;;;;;6292432;28;20116;-80
2024/03/02 12:57:01;;;;;;;12.97;9.43;;;;;;;;;;6313108;28;20024;-81
2024/03/02 13:00:09;;;;;;;12.80;9.68;;;;;;;;;;6302227;28;20024;-81
2024/03/02 13:03:11;;;;;;;13.38;10.13;;;;;;;;;;6315523;28;20105;-81
2024/03/02 13:06:11;;;;;;;12.25;10.38;;;;;;;;;;6321309;28;20491;-80
2024/03/02 13:09:14;;;;;;;9.93;8.93;;;;;;;;;;6303948;28;20020;-81
2024/03/02 13:12:15;;;;;;;13.32;9.85;;;;;;;;;;6320343;28;20020;-80
2024/03/02 13:15:15;;;;;;;12.02;9.25;;;;;;;;;;6302852;28;20070;-80
2024/03/02 13:18:17;;;;;;;12.40;9.20;;;;;;;;;;6298085;28;20388;-80
2024/03/02 13:21:18;;;;;;;12.65;9.68;;;;;;;;;;6277868;28;20025;-81
2024/03/02 13:24:19;;;;;;;12.07;9.97;;;;;;;;;;6310792;28;20193;-81
2024/03/02 13:27:20;;;;;;;12.25;9.15;;;;;;;;;;6321927;28;20020;-81
2024/03/02 13:30:20;;;;;;;10.23;8.95;;;;;;;;;;6310222;28;20077;-80
2024/03/02 13:33:22;;;;;;;11.83;9.27;;;;;;;;;;6323437;28;20028;-80
2024/03/02 13:36:23;;;;;;;11.25;8.77;;;;;;;;;;6321934;28;20028;-81
2024/03/02 13:39:23;;;;;;;;;;;;;;;;;;6323863;28;20407;-81
2024/03/02 13:42:24;;;;;;;8.98;6.80;;;;;;;;;;6322506;28;20364;-81
2024/03/02 13:45:24;;;;;;;9.30;7.93;;;;;;;;;;6321728;28;20084;-81
2024/03/02 13:48:27;;;;;;;9.03;7.50;;;;;;;;;;6300449;28;20461;-81
2024/03/02 13:51:27;;;;;;;10.25;8.60;;;;;;;;;;6321466;28;20027;-81
2024/03/02 13:54:28;;;;;;;10.83;8.30;;;;;;;;;;6301802;28;20396;-80
2024/03/02 13:57:28;;;;;;;11.27;8.03;;;;;;;;;;6322244;28;20473;-82
2024/03/02 14:00:29;;;;;;;11.40;8.27;;;;;;;;;;6322711;28;20016;-81
2024/03/02 14:03:29;;;;;;;9.68;7.40;;;;;;;;;;6319974;28;20020;-81
2024/03/02 14:06:29;;;;;;;9.57;7.70;;;;;;;;;;6324955;28;20110;-81
2024/03/02 14:09:30;;;;;;;9.37;7.83;;;;;;;;;;6309585;28;20529;-81
2024/03/02 14:12:30;;;;;;;10.43;8.10;;;;;;;;;;6325287;28;20444;-81
2024/03/02 14:15:31;;;;;;;10.98;8.43;;;;;;;;;;6326532;28;20028;-80
2024/03/02 14:18:31;;;;;;;10.25;8.02;;;;;;;;;;6327102;28;20028;-81
2024/03/02 14:21:31;;;;;;;9.27;7.83;;;;;;;;;;6310896;28;20027;-81
2024/03/02 14:24:32;;;;;;;9.97;8.17;;;;;;;;;;6308588;28;20048;-80
2024/03/02 14:27:32;;;;;;;10.63;8.33;;;;;;;;;;6327611;28;20473;-81
2024/03/02 14:30:33;;;;;;;10.80;8.20;;;;;;;;;;6319515;28;20024;-80
2024/03/02 14:33:34;;;;;;;10.52;8.57;;;;;;;;;;6315918;28;20012;-81
2024/03/02 14:36:34;;;;;;;9.33;7.87;;;;;;;;;;6324442;28;20455;-81
2024/03/02 14:39:36;;;;;;;10.37;8.83;;;;;;;;;;6328096;28;20055;-80
2024/03/02 14:42:36;;;;;;;10.70;8.82;;;;;;;;;;6327462;28;20020;-80
2024/03/02 14:45:36;;;;;;;12.60;9.23;;;;;;;;;;6327185;28;20070;-81
2024/03/02 14:48:37;;;;;;;11.27;8.73;;;;;;;;;;6324059;28;20039;-80
2024/03/02 14:51:38;;;;;;;10.88;8.25;;;;;;;;;;6291210;28;20024;-80
2024/03/02 14:54:38;;;;;;;10.77;8.27;;;;;;;;;;6305020;28;20097;-81
2024/03/02 14:57:38;;;;;;;9.53;8.23;;;;;;;;;;6308101;28;20039;-80
2024/03/02 15:00:38;;;;;;;12.03;8.57;;;;;;;;;;6320276;28;20028;-80
2024/03/02 15:03:39;;;;;;;10.90;8.93;;;;;;;;;;6284016;28;20468;-81
2024/03/02 15:06:39;;;;;;;9.55;8.48;;;;;;;;;;6303456;28;20598;-81
2024/03/02 15:09:40;;;;;;;10.43;8.70;;;;;;;;;;6325462;28;20024;-81
2024/03/02 15:12:40;;;;;;;11.50;8.43;;;;;;;;;;6326379;28;20034;-80
2024/03/02 15:15:40;;;;;;;11.03;8.53;;;;;;;;;;6324737;28;20016;-80
2024/03/02 15:18:41;;;;;;;10.20;8.53;;;;;;;;;;6325846;28;20023;-81
2024/03/02 15:21:41;;;;;;;12.10;8.73;;;;;;;;;;6323713;28;20020;-81
2024/03/02 15:24:42;;;;;;;11.02;9.07;;;;;;;;;;6323091;28;20048;-81
2024/03/02 15:27:42;;;;;;;11.83;8.97;;;;;;;;;;6307688;28;20028;-80
2024/03/02 15:30:43;;;;;;;12.48;8.98;;;;;;;;;;6325607;28;20024;-80
2024/03/02 15:33:43;;;;;;;10.37;8.57;;;;;;;;;;6324704;28;20031;-81
2024/03/02 15:36:43;;;;;;;12.27;9.13;;;;;;;;;;6313999;28;20033;-81
2024/03/02 15:39:44;;;;;;;11.13;9.03;;;;;;;;;;6313439;28;20028;-80
2024/03/02 15:42:44;;;;;;;11.83;8.87;;;;;;;;;;6325371;28;20020;-81
2024/03/02 15:45:44;;;;;;;11.47;9.43;;;;;;;;;;6315374;28;20032;-80
2024/03/02 15:48:44;;;;;;;10.80;8.17;;;;;;;;;;6303554;28;20008;-80
2024/03/02 15:51:45;;;;;;;11.77;9.57;;;;;;;;;;6304773;28;20594;-80
2024/03/02 15:54:45;;;;;;;11.70;9.23;;;;;;;;;;6319775;28;20512;-80
2024/03/02 15:57:45;;;;;;;13.10;9.70;;;;;;;;;;6313861;28;20036;-80
2024/03/02 16:00:46;;;;;;;10.57;9.03;;;;;;;;;;6325034;28;20039;-81
2024/03/02 16:03:46;;;;;;;11.90;9.20;;;;;;;;;;6307473;28;20028;-84
2024/03/02 16:06:46;;;;;;;10.63;8.93;;;;;;;;;;6323281;28;20034;-84
2024/03/02 16:09:46;;;;;;;12.10;9.23;;;;;;;;;;6326759;28;20445;-84
2024/03/02 16:12:46;;;;;;;10.63;9.07;;;;;;;;;;6323375;28;20465;-84
2024/03/02 16:15:47;;;;;;;11.13;9.33;;;;;;;;;;6314321;28;20488;-80
2024/03/02 16:18:47;;;;;;;10.43;8.80;;;;;;;;;;6323637;28;20029;-80
2024/03/02 16:21:47;;;;;;;9.83;8.60;;;;;;;;;;6321803;28;20016;-77
2024/03/02 16:24:47;;;;;;;11.27;9.20;;;;;;;;;;6321871;28;20543;-78
2024/03/02 16:27:48;;;;;;;11.80;9.13;;;;;;;;;;6321588;28;20012;-81
2024/03/02 16:30:48;;;;;;;9.67;7.97;;;;;;;;;;6323243;28;20438;-81
2024/03/02 16:33:49;;;;;;;11.20;8.25;;;;;;;;;;6294848;28;20552;-79
2024/03/02 16:36:49;;;;;;;9.57;8.40;;;;;;;;;;6316291;28;20536;-78
2024/03/02 16:39:49;;;;;;;10.87;9.27;;;;;;;;;;6324077;28;20453;-79
2024/03/02 16:42:49;;;;;;;11.67;9.23;;;;;;;;;;6323253;28;20477;-79
2024/03/02 16:45:50;;;;;;;10.03;8.23;;;;;;;;;;6323377;28;20473;-79
2024/03/02 16:48:50;;;;;;;11.30;9.17;;;;;;;;;;6322392;28;20024;-81
2024/03/02 16:51:50;;;;;;;11.30;9.37;;;;;;;;;;6319574;28;20068;-80
2024/03/02 16:54:51;;;;;;;10.70;8.83;;;;;;;;;;6322531;28;20098;-79
2024/03/02 16:57:51;;;;;;;11.60;8.27;;;;;;;;;;6322292;28;20038;-78
2024/03/02 17:00:52;;;;;;;9.30;8.30;;;;;;;;;;6321092;28;20350;-78
2024/03/02 17:03:53;;;;;;;11.70;8.10;;;;;;;;;;6322101;28;20032;-78
2024/03/02 17:06:54;;;;;;;9.07;7.87;;;;;;;;;;6316171;28;20457;-78
2024/03/02 17:09:56;;;;;;;11.32;8.52;;;;;;;;;;6301520;28;20499;-82
2024/03/02 17:12:59;;;;;;;10.27;8.48;;;;;;;;;;6304355;28;20031;-86
2024/03/02 17:15:59;;;;;;;10.55;8.32;;;;;;;;;;6322573;28;20032;-82
2024/03/02 17:18:59;;;;;;;9.03;7.63;;;;;;;;;;6320738;28;20537;-82
2024/03/02 17:22:00;;;;;;;9.50;7.73;;;;;;;;;;6318995;28;20384;-82
2024/03/02 17:25:00;;;;;;;9.37;7.77;;;;;;;;;;6309526;28;20048;-82
2024/03/02 17:28:19;;;;;;;9.40;7.93;;;;;;;;;;6319465;28;20107;-82
2024/03/02 17:31:19;;;;;;;8.27;7.43;;;;;;;;;;6320583;28;20061;-81
2024/03/02 17:34:19;;;;;;;9.37;7.33;;;;;;;;;;6312462;28;20088;-82
2024/03/02 17:37:20;;;;;;;9.33;7.43;;;;;;;;;;6317626;28;20024;-82
2024/03/02 17:40:20;;;;;;;10.73;8.20;;;;;;;;;;6314850;28;20125;-81
2024/03/02 17:43:20;;;;;;;11.70;8.20;;;;;;;;;;6324652;28;20032;-82
2024/03/02 17:46:20;;;;;;;9.43;7.43;;;;;;;;;;6319782;28;20028;-84
2024/03/02 17:49:21;;;;;;;10.67;8.20;;;;;;;;;;6306972;28;20036;-85
2024/03/02 17:52:21;;;;;;;10.80;7.73;;;;;;;;;;6318376;28;20035;-88
2024/03/02 17:55:21;;;;;;;9.67;7.90;;;;;;;;;;6322599;28;20016;-84
2024/03/02 17:58:22;;;;;;;9.77;7.73;;;;;;;;;;6318854;28;20031;-87
2024/03/02 18:01:22;;;;;;;10.10;8.40;;;;;;;;;;6295180;28;20055;-83